createdAt,value
2018-03-24T00:00:13.361Z,0.80
2018-03-24T00:02:43.414Z,0.90
2018-03-24T00:05:33.755Z,0.90
2018-03-24T00:08:03.872Z,0.80
2018-03-24T00:16:10.423Z,0.80
2018-03-24T00:19:07.335Z,0.80
2018-03-24T00:21:37.440Z,0.70
2018-03-24T00:24:07.535Z,0.70
2018-03-24T00:29:47.778Z,0.60
2018-03-24T00:32:17.907Z,0.60
2018-03-24T00:34:47.950Z,0.60
2018-03-24T00:37:18.614Z,0.50
2018-03-24T00:39:48.738Z,0.50
2018-03-24T00:42:19.043Z,0.50
2018-03-24T00:44:49.998Z,0.50
2018-03-24T00:47:20.199Z,0.50
2018-03-24T00:50:15.937Z,0.50
2018-03-24T00:55:55.639Z,0.40
2018-03-24T00:58:51.591Z,0.30
2018-03-24T01:01:21.722Z,0.20
2018-03-24T01:04:15.829Z,0.20
2018-03-24T01:06:45.914Z,0.20
2018-03-24T01:09:16.433Z,0.00
2018-03-24T01:12:07.898Z,-0.10
2018-03-24T01:14:56.134Z,-0.20
2018-03-24T01:26:58.989Z,-0.80
2018-03-24T01:29:29.034Z,-1.00
2018-03-24T01:32:02.084Z,-0.90
2018-03-24T01:34:32.607Z,-1.00
2018-03-24T01:37:03.210Z,-1.10
2018-03-24T01:39:33.702Z,-1.30
2018-03-24T01:42:04.099Z,-1.40
2018-03-24T01:44:34.155Z,-1.50
2018-03-24T01:50:14.867Z,-1.20
2018-03-24T01:52:44.918Z,-1.00
2018-03-24T01:55:16.010Z,-0.90
2018-03-24T01:57:46.097Z,-0.90
2018-03-24T02:00:16.267Z,-0.90
2018-03-24T02:06:03.873Z,-0.90
2018-03-24T02:09:03.630Z,-0.90
2018-03-24T02:14:44.687Z,-1.00
2018-03-24T02:17:15.317Z,-1.10
2018-03-24T02:22:56.074Z,-1.10
2018-03-24T02:25:41.890Z,-1.10
2018-03-24T02:28:12.343Z,-1.10
2018-03-24T02:30:42.246Z,-1.20
2018-03-24T02:33:30.295Z,-1.20
2018-03-24T02:36:00.464Z,-1.40
2018-03-24T02:41:41.004Z,-1.30
2018-03-24T02:44:11.041Z,-1.30
2018-03-24T02:46:41.622Z,-1.30
2018-03-24T02:49:11.891Z,-1.30
2018-03-24T02:51:41.997Z,-1.40
2018-03-24T02:54:12.281Z,-1.30
2018-03-24T02:56:42.050Z,-1.30
2018-03-24T02:59:12.299Z,-1.40
2018-03-24T03:01:42.174Z,-1.40
2018-03-24T03:04:12.338Z,-1.30
2018-03-24T03:06:43.049Z,-1.40
2018-03-24T03:09:13.434Z,-1.50
2018-03-24T03:11:43.983Z,-1.60
2018-03-24T03:17:24.527Z,-1.60
2018-03-24T03:19:54.688Z,-1.60
2018-03-24T03:22:24.950Z,-1.60
2018-03-24T03:24:55.014Z,-1.70
2018-03-24T03:27:25.101Z,-1.70
2018-03-24T03:29:55.173Z,-1.80
2018-03-24T03:32:28.471Z,-1.90
2018-03-24T03:35:00.605Z,-1.90
2018-03-24T03:37:31.655Z,-1.90
2018-03-24T03:40:02.620Z,-2.10
2018-03-24T03:45:45.301Z,-2.10
2018-03-24T03:51:52.180Z,-1.90
2018-03-24T03:57:25.264Z,-2.00
2018-03-24T03:59:57.349Z,-2.10
2018-03-24T04:02:27.828Z,-2.10
2018-03-24T04:04:59.060Z,-2.10
2018-03-24T04:13:59.967Z,-2.30
2018-03-24T04:16:54.995Z,-2.30
2018-03-24T04:22:35.149Z,-2.20
2018-03-24T04:25:23.895Z,-2.00
2018-03-24T04:31:06.625Z,-2.00
2018-03-24T04:33:36.770Z,-2.00
2018-03-24T04:36:07.377Z,-2.10
2018-03-24T04:38:54.170Z,-2.20
2018-03-24T04:41:25.089Z,-2.30
2018-03-24T04:46:57.633Z,-2.30
2018-03-24T04:49:27.715Z,-2.30
2018-03-24T04:51:57.821Z,-2.20
2018-03-24T04:57:33.875Z,-2.20
2018-03-24T05:00:03.670Z,-2.20
2018-03-24T05:12:17.999Z,-2.30
2018-03-24T05:15:04.931Z,-2.20
2018-03-24T05:17:34.953Z,-2.10
2018-03-24T05:20:04.914Z,-2.10
2018-03-24T05:22:35.362Z,-2.20
2018-03-24T05:28:34.577Z,-2.00
2018-03-24T05:37:35.229Z,-2.00
2018-03-24T05:40:14.393Z,-2.00
2018-03-24T05:43:05.260Z,-1.90
2018-03-24T05:45:36.140Z,-1.80
2018-03-24T05:51:17.145Z,-1.80
2018-03-24T06:03:14.226Z,-1.80
2018-03-24T06:05:44.416Z,-1.80
2018-03-24T06:08:14.708Z,-1.70
2018-03-24T06:10:50.860Z,-1.60
2018-03-24T06:13:21.947Z,-1.40
2018-03-24T06:15:52.029Z,-1.40
2018-03-24T06:18:22.797Z,-1.30
2018-03-24T06:20:52.242Z,-1.30
2018-03-24T06:23:22.674Z,-1.20
2018-03-24T06:25:52.760Z,-1.10
2018-03-24T06:28:22.938Z,-1.10
2018-03-24T06:30:53.814Z,-1.00
2018-03-24T06:33:23.829Z,-0.90
2018-03-24T06:35:54.723Z,-0.80
2018-03-24T06:38:25.007Z,-0.70
2018-03-24T06:40:55.132Z,-0.60
2018-03-24T06:43:25.656Z,-0.50
2018-03-24T06:46:05.723Z,-0.30
2018-03-24T06:48:36.130Z,-0.20
2018-03-24T06:51:06.668Z,-0.10
2018-03-24T06:53:38.294Z,0.20
2018-03-24T06:56:26.368Z,0.40
2018-03-24T07:02:02.815Z,0.90
2018-03-24T07:04:34.157Z,1.10
2018-03-24T07:07:26.344Z,1.10
2018-03-24T07:13:20.586Z,1.50
2018-03-24T07:22:03.384Z,2.20
2018-03-24T07:28:00.120Z,2.60
2018-03-24T07:30:43.724Z,3.10
2018-03-24T07:33:32.700Z,3.50
2018-03-24T07:36:02.824Z,3.70
2018-03-24T07:38:51.554Z,3.90
2018-03-24T07:41:50.382Z,4.20
2018-03-24T07:44:20.110Z,4.30
2018-03-24T07:47:05.668Z,4.60
2018-03-24T07:52:55.079Z,4.80
2018-03-24T07:55:44.657Z,5.20
2018-03-24T08:13:51.926Z,5.60
2018-03-24T08:35:34.181Z,6.80
2018-03-24T09:02:28.530Z,6.70
2018-03-24T09:07:53.189Z,7.00
2018-03-24T09:10:49.446Z,7.10
2018-03-24T09:13:22.933Z,7.00
2018-03-24T09:19:21.884Z,7.30
2018-03-24T09:22:00.908Z,7.10
2018-03-24T09:27:38.318Z,7.20
2018-03-24T09:30:08.363Z,7.50
2018-03-24T09:32:57.224Z,7.30
2018-03-24T09:35:51.780Z,7.50
2018-03-24T09:45:09.614Z,7.60
2018-03-24T09:47:59.011Z,7.80
2018-03-24T09:56:53.290Z,8.20
2018-03-24T09:59:23.349Z,8.70
2018-03-24T10:07:56.811Z,10.10
2018-03-24T10:10:51.010Z,10.40
2018-03-24T10:13:22.262Z,10.30
2018-03-24T10:15:53.086Z,10.40
2018-03-24T10:18:23.448Z,10.90
2018-03-24T10:24:24.255Z,12.20
2018-03-24T10:26:54.660Z,11.50
2018-03-24T11:30:17.083Z,13.60
2018-03-24T11:38:46.949Z,13.20
2018-03-24T11:41:24.776Z,13.30
2018-03-24T11:44:19.759Z,13.20
2018-03-24T11:46:59.648Z,13.20
2018-03-24T11:49:50.927Z,13.50
2018-03-24T11:58:42.161Z,13.20
2018-03-24T12:01:36.970Z,12.70
2018-03-24T12:10:50.515Z,13.10
2018-03-24T12:16:12.920Z,13.90
2018-03-24T12:19:09.491Z,13.70
2018-03-24T12:24:52.810Z,14.30
2018-03-24T12:27:41.441Z,13.90
2018-03-24T12:33:14.585Z,13.20
2018-03-24T12:35:54.700Z,13.10
2018-03-24T12:38:52.125Z,13.10
2018-03-24T12:41:23.362Z,12.90
2018-03-24T12:43:53.412Z,13.40
2018-03-24T12:46:45.899Z,13.90
2018-03-24T12:49:22.038Z,13.70
2018-03-24T12:55:15.576Z,13.30
2018-03-24T12:57:45.695Z,13.10
2018-03-24T13:06:44.484Z,13.30
2018-03-24T13:16:19.531Z,14.00
2018-03-24T13:25:09.636Z,14.40
2018-03-24T13:36:36.301Z,12.40
2018-03-24T13:39:22.164Z,12.10
2018-03-24T13:45:02.901Z,12.40
2018-03-24T13:48:09.244Z,12.90
2018-03-24T13:50:39.327Z,13.20
2018-03-24T13:53:24.784Z,13.30
2018-03-24T13:56:15.140Z,13.00
2018-03-24T14:05:13.801Z,12.40
2018-03-24T14:08:08.302Z,12.20
2018-03-24T14:11:06.861Z,12.00
2018-03-24T14:13:53.260Z,11.90
2018-03-24T14:16:26.566Z,11.50
2018-03-24T14:19:23.031Z,11.30
2018-03-24T14:21:53.392Z,11.40
2018-03-24T14:27:29.566Z,11.60
2018-03-24T14:30:07.216Z,11.70
2018-03-24T14:32:38.325Z,11.80
2018-03-24T14:38:15.486Z,11.60
2018-03-24T14:41:20.099Z,11.40
2018-03-24T14:43:52.033Z,11.60
2018-03-24T14:46:45.623Z,11.40
2018-03-24T14:49:15.684Z,11.40
2018-03-24T14:52:00.192Z,11.20
2018-03-24T14:54:30.330Z,10.90
2018-03-24T14:57:21.455Z,10.30
2018-03-24T14:59:54.022Z,10.20
2018-03-24T15:02:24.373Z,10.30
2018-03-24T15:04:55.086Z,10.00
2018-03-24T15:07:25.225Z,10.00
2018-03-24T15:13:27.481Z,9.70
2018-03-24T15:25:48.269Z,9.80
2018-03-24T15:28:21.452Z,10.10
2018-03-24T15:31:17.574Z,10.00
2018-03-24T15:36:52.361Z,10.50
2018-03-24T15:39:22.551Z,10.60
2018-03-24T15:42:05.346Z,10.30
2018-03-24T15:44:35.416Z,10.30
2018-03-24T15:47:32.589Z,10.30
2018-03-24T15:50:02.976Z,10.40
2018-03-24T15:56:02.291Z,10.60
2018-03-24T15:58:50.792Z,10.60
2018-03-24T16:01:45.808Z,10.70
2018-03-24T16:04:40.455Z,10.40
2018-03-24T16:10:34.261Z,9.90
2018-03-24T16:16:13.735Z,8.70
2018-03-24T16:18:53.537Z,8.20
2018-03-24T16:24:34.280Z,7.60
2018-03-24T16:27:16.503Z,7.30
2018-03-24T16:29:47.521Z,7.10
2018-03-24T16:32:18.206Z,6.90
2018-03-24T16:44:24.506Z,6.40
2018-03-24T16:46:54.570Z,6.20
2018-03-24T16:49:24.608Z,6.10
2018-03-24T16:58:35.030Z,5.80
2018-03-24T17:01:24.053Z,5.80
2018-03-24T17:07:17.345Z,5.70
2018-03-24T17:09:47.678Z,5.50
2018-03-24T17:12:17.901Z,5.30
2018-03-24T17:18:45.092Z,5.20
2018-03-24T17:24:21.975Z,5.00
2018-03-24T17:26:52.359Z,4.70
2018-03-24T17:35:39.497Z,3.80
2018-03-24T17:41:25.673Z,3.20
2018-03-24T17:47:05.920Z,2.90
2018-03-24T17:49:36.102Z,2.60
2018-03-24T17:52:05.901Z,2.40
2018-03-24T17:54:36.079Z,2.30
2018-03-24T17:57:05.952Z,2.20
2018-03-24T17:59:36.110Z,2.10
2018-03-24T18:02:22.544Z,2.00
2018-03-24T18:04:52.628Z,1.90
2018-03-24T18:07:22.702Z,1.70
2018-03-24T18:09:52.816Z,1.60
2018-03-24T18:12:22.897Z,1.60
2018-03-24T18:14:53.242Z,1.40
2018-03-24T18:17:23.630Z,1.30
2018-03-24T18:19:53.676Z,1.20
2018-03-24T18:22:24.009Z,1.20
2018-03-24T18:24:54.091Z,1.10
2018-03-24T18:27:24.251Z,1.10
2018-03-24T18:29:54.130Z,1.10
2018-03-24T18:32:32.639Z,1.00
2018-03-24T18:35:21.749Z,1.00
2018-03-24T18:37:51.807Z,0.90
2018-03-24T18:40:21.891Z,0.80
2018-03-24T18:42:52.212Z,0.80
2018-03-24T19:05:21.000Z,1.00
2018-03-24T19:13:54.613Z,0.90
2018-03-24T19:22:41.571Z,1.10
2018-03-24T19:25:11.452Z,1.00
2018-03-24T19:30:47.685Z,0.90
2018-03-24T19:33:35.945Z,0.90
2018-03-24T19:42:30.448Z,1.00
2018-03-24T19:48:21.903Z,1.10
2018-03-24T19:53:51.839Z,0.90
2018-03-24T19:56:42.775Z,0.80
2018-03-24T19:59:12.866Z,0.70
2018-03-24T20:04:52.466Z,0.90
2018-03-24T20:10:53.041Z,0.90
2018-03-24T20:13:23.132Z,0.90
2018-03-24T20:15:53.216Z,1.00
2018-03-24T20:18:40.877Z,1.00
2018-03-24T20:21:10.990Z,1.00
2018-03-24T20:26:47.718Z,0.90
2018-03-24T20:29:17.825Z,0.80
2018-03-24T20:31:47.974Z,0.70
2018-03-24T20:34:24.890Z,0.60
2018-03-24T20:36:55.193Z,0.60
2018-03-24T20:45:55.908Z,0.00
2018-03-24T20:48:26.045Z,-0.20
2018-03-24T20:54:06.224Z,-0.40
2018-03-24T20:56:36.710Z,-0.50
2018-03-24T20:59:06.797Z,-0.40
2018-03-24T21:01:59.536Z,-0.30
2018-03-24T21:04:29.619Z,-0.20
2018-03-24T21:06:59.705Z,-0.10
2018-03-24T21:09:30.523Z,-0.10
2018-03-24T21:18:43.392Z,-0.10
2018-03-24T21:21:27.413Z,-0.10
2018-03-24T21:23:57.774Z,-0.10
2018-03-24T21:29:38.235Z,-0.20
2018-03-24T21:35:19.879Z,-0.50
2018-03-24T21:37:50.591Z,-0.60
2018-03-24T21:46:45.224Z,-0.60
2018-03-24T21:49:15.324Z,-0.40
2018-03-24T21:51:46.614Z,-0.30
2018-03-24T21:54:16.672Z,-0.30
2018-03-24T21:56:54.414Z,-0.40
2018-03-24T22:02:31.078Z,0.00
2018-03-24T22:05:01.230Z,0.20
2018-03-24T22:07:31.278Z,0.50
2018-03-24T22:10:01.711Z,0.60
2018-03-24T22:27:44.613Z,1.00
2018-03-24T22:30:15.412Z,1.00
2018-03-24T22:36:03.887Z,1.00
2018-03-24T22:38:35.447Z,1.00
2018-03-24T22:41:06.405Z,1.00
2018-03-24T22:43:36.804Z,0.90
2018-03-24T22:46:22.720Z,0.80
2018-03-24T23:04:17.895Z,1.20
2018-03-24T23:06:53.706Z,1.20
2018-03-24T23:09:42.192Z,1.20
2018-03-24T23:18:27.893Z,1.10
2018-03-24T23:24:04.130Z,1.00
2018-03-24T23:26:34.230Z,1.00
2018-03-24T23:34:44.516Z,0.90
2018-03-24T23:43:28.250Z,1.00
2018-03-24T23:45:58.270Z,1.00
2018-03-24T23:48:28.689Z,1.10
2018-03-24T23:53:59.620Z,1.10
2018-03-24T23:56:29.708Z,1.10
2018-03-24T23:58:59.599Z,1.10
